Farmington Regional Airport

About
Name: Farmington Regional Airport
Identifier:  FAM/KFAM
Local Time:  18. Aug 07:49 CDT
Location
Flights per Day
0 flights
Distance: 512km (318mi)
Punctuality
0% (0 flights per day delayed)
Delay Average: 24 minutes
Current Weather
 24 C (Humidity: 83%)
  7kt (12km/h / 8mph) from 190°
  16km (10 mi.)
 
 METAR KFAM 181156Z AUTO 19007KT 10SM CLR 24/21 A2993 RMK AO2 SLP135 T02390211 10261 20239 51010

Current Flights

Departures
Number Departure To Airline
Arrivals
Number Arrival From Airline

Current Delays

Departures
N/A
Arrivals
N/A

Destinations

Top Destinations
Airport Flights
per week
Seats
per week
  Spearfish (SPF) 1 - 0 0
  Panama City (ECP) 0 - 0 0
  Birmingham (BHM) 0 - 0 0
  Destin (DSI) 0 - 0 0
  Conroe (CXO) 0 - 0 0
  Shreveport (DTN) 0 - 0 0
  Minneapolis (MIC) 0 - 0 0
  Green Bay (GRB) 0 - 0 0
  Terre Haute (HUF) 0 - 0 0
  Rochester (RST) 0 - 0 0
  Denver (BJC) 0 - 0 0
  Bozeman (BZN) 0 - 0 0
  Oshkosh (OSH) 0 - 0 0
  Springdale (SPZ) 0 - 0 0
  Worthington (OTG) 0 - 0 0
  Lexington (LEX) 0 - 0 0

Airlines & Planes

Top Airlines
Airline Flights
per Day
Seats
per Day
  National Airlines 0 -
  Nolinor Aviation 0 -
Nordwind Airlines 0 -
Jet Charter Inc ( Franklin Lakes Nj ) 0 -
  Novair 0 -
  Flybe Nordic 0 -
Top Plane Types
Model Flights Seats
Cirrus SR22 0.3/day - 0
Piper PA-46-350P Malibu Mirage 0.1/day - 0
Piper PA-34-220T Seneca III 0.1/day - 0
Cessna C525 0.0/day - 0